Time;durP1;ratioP1;P1;durP2;ratioP2;P2;SDS_P1;SDS_P2;PMS_P1;PMS_P2;Temp;Humidity;BMP_temperature;BMP_pressure;BME280_temperature;BME280_humidity;BME280_pressure;Samples;Min_cycle;Max_cycle;Signal;HPM_P1;HPM_P2
2023/07/09 00:01:36;;;;;;;4.40;3.20;;;;;;;;;;5019560;28;20064;-80
2023/07/09 00:04:02;;;;;;;3.92;3.00;;;;;;;;;;5037077;28;20041;-81
2023/07/09 00:06:28;;;;;;;3.20;2.85;;;;;;;;;;5037255;28;20030;-80
2023/07/09 00:08:53;;;;;;;6.43;3.28;;;;;;;;;;5036319;28;20091;-80
2023/07/09 00:11:18;;;;;;;7.00;3.03;;;;;;;;;;5019014;28;20457;-81
2023/07/09 00:13:44;;;;;;;5.75;3.25;;;;;;;;;;5037031;28;20048;-82
2023/07/09 00:16:14;;;;;;;5.53;3.10;;;;;;;;;;5037229;28;20025;-81
2023/07/09 00:18:40;;;;;;;5.20;3.15;;;;;;;;;;5035874;28;20021;-79
2023/07/09 00:21:05;;;;;;;8.30;3.00;;;;;;;;;;5036203;28;20055;-81
2023/07/09 00:23:31;;;;;;;5.28;3.33;;;;;;;;;;5036038;28;20033;-80
2023/07/09 00:25:56;;;;;;;7.50;3.05;;;;;;;;;;5035339;28;20056;-80
2023/07/09 00:28:22;;;;;;;6.30;3.25;;;;;;;;;;5019225;28;20407;-81
2023/07/09 00:30:47;;;;;;;5.30;2.90;;;;;;;;;;5036758;28;20025;-80
2023/07/09 00:33:14;;;;;;;5.95;3.10;;;;;;;;;;5019122;28;20055;-80
2023/07/09 00:35:46;;;;;;;4.35;3.00;;;;;;;;;;5019670;28;20029;-80
2023/07/09 00:38:21;;;;;;;5.90;3.10;;;;;;;;;;5036747;28;20029;-81
2023/07/09 00:41:07;;;;;;;7.60;3.20;;;;;;;;;;5019724;28;20125;-82
2023/07/09 00:43:37;;;;;;;3.53;3.03;;;;;;;;;;5030034;28;20045;-80
2023/07/09 00:46:23;;;;;;;3.38;2.83;;;;;;;;;;5039129;28;20112;-81
2023/07/09 00:48:57;;;;;;;3.92;2.90;;;;;;;;;;5038643;28;20387;-81
2023/07/09 00:51:23;;;;;;;5.30;2.97;;;;;;;;;;5039326;28;20029;-80
2023/07/09 00:53:50;;;;;;;5.15;3.38;;;;;;;;;;5021910;28;20094;-80
2023/07/09 00:56:40;;;;;;;3.97;3.30;;;;;;;;;;5038245;28;20025;-81
2023/07/09 00:59:08;;;;;;;5.47;3.22;;;;;;;;;;5040585;28;20032;-81
2023/07/09 01:01:34;;;;;;;5.18;2.75;;;;;;;;;;5039405;28;20028;-82
2023/07/09 01:03:59;;;;;;;8.35;2.85;;;;;;;;;;5055472;28;20440;-81
2023/07/09 01:06:43;;;;;;;5.13;3.13;;;;;;;;;;5056022;28;20028;-80
2023/07/09 01:09:08;;;;;;;6.85;3.03;;;;;;;;;;5039755;28;20033;-80
2023/07/09 01:11:34;;;;;;;8.05;3.30;;;;;;;;;;5005690;28;20033;-81
2023/07/09 01:14:01;;;;;;;7.55;3.10;;;;;;;;;;5038515;28;20032;-80
2023/07/09 01:16:35;;;;;;;7.55;3.20;;;;;;;;;;5038219;28;20035;-80
2023/07/09 01:19:01;;;;;;;4.90;3.10;;;;;;;;;;5038404;28;20032;-80
2023/07/09 01:21:27;;;;;;;4.72;3.03;;;;;;;;;;5055782;28;20448;-80
2023/07/09 01:23:52;;;;;;;9.02;2.80;;;;;;;;;;5055500;28;20048;-81
2023/07/09 01:26:20;;;;;;;9.98;3.40;;;;;;;;;;5022401;28;20033;-80
2023/07/09 01:28:45;;;;;;;4.05;3.08;;;;;;;;;;5061936;28;20036;-80
2023/07/09 01:31:13;;;;;;;6.72;2.95;;;;;;;;;;5041850;28;20032;-79
2023/07/09 01:33:44;;;;;;;7.70;2.97;;;;;;;;;;5062263;28;20105;-79
2023/07/09 01:36:13;;;;;;;5.05;2.97;;;;;;;;;;5045777;28;20084;-81
2023/07/09 01:38:39;;;;;;;6.50;3.22;;;;;;;;;;5045158;28;20040;-81
2023/07/09 01:41:04;;;;;;;4.70;3.20;;;;;;;;;;5047115;28;20033;-81
2023/07/09 01:43:30;;;;;;;3.45;3.13;;;;;;;;;;5040858;28;20539;-81
2023/07/09 01:45:57;;;;;;;5.50;3.08;;;;;;;;;;5040262;28;20037;-80
2023/07/09 01:48:24;;;;;;;4.38;3.00;;;;;;;;;;5058025;28;20025;-81
2023/07/09 01:50:49;;;;;;;5.20;2.92;;;;;;;;;;5004994;28;20348;-81
2023/07/09 01:53:15;;;;;;;4.25;2.88;;;;;;;;;;5037085;28;20025;-81
2023/07/09 01:55:41;;;;;;;5.25;2.95;;;;;;;;;;5004927;28;20487;-81
2023/07/09 01:58:08;;;;;;;7.22;3.17;;;;;;;;;;5055414;28;20040;-81
2023/07/09 02:00:36;;;;;;;4.55;3.30;;;;;;;;;;5037686;28;20031;-81
2023/07/09 02:03:02;;;;;;;7.20;2.83;;;;;;;;;;5021016;28;20427;-80
2023/07/09 02:05:29;;;;;;;4.43;3.22;;;;;;;;;;5020787;28;20060;-80
2023/07/09 02:07:55;;;;;;;8.73;3.20;;;;;;;;;;5037477;28;20048;-80
2023/07/09 02:10:20;;;;;;;3.95;3.20;;;;;;;;;;5037276;28;20417;-81
2023/07/09 02:12:46;;;;;;;7.68;3.42;;;;;;;;;;5036979;28;20074;-81
2023/07/09 02:15:11;;;;;;;7.28;3.10;;;;;;;;;;5036883;28;20039;-81
2023/07/09 02:17:37;;;;;;;13.48;3.45;;;;;;;;;;5036201;28;20063;-80
2023/07/09 02:20:04;;;;;;;6.03;3.38;;;;;;;;;;5036849;28;20152;-81
2023/07/09 02:22:30;;;;;;;6.13;3.25;;;;;;;;;;5053517;28;20079;-80
2023/07/09 02:24:56;;;;;;;4.43;3.30;;;;;;;;;;5053362;28;20056;-80
2023/07/09 02:27:21;;;;;;;6.95;3.00;;;;;;;;;;5020340;28;20484;-80
2023/07/09 02:29:47;;;;;;;6.78;3.05;;;;;;;;;;5036961;28;20029;-81
2023/07/09 02:32:19;;;;;;;11.27;3.53;;;;;;;;;;5054401;28;20029;-80
2023/07/09 02:34:48;;;;;;;4.00;3.13;;;;;;;;;;5037588;28;20033;-80
2023/07/09 02:37:14;;;;;;;3.95;3.25;;;;;;;;;;5037470;28;20096;-80
2023/07/09 02:39:40;;;;;;;5.47;3.25;;;;;;;;;;5054272;28;20452;-81
2023/07/09 02:42:05;;;;;;;3.92;3.20;;;;;;;;;;5036666;28;20033;-80
2023/07/09 02:44:31;;;;;;;7.05;3.10;;;;;;;;;;5036600;28;20456;-80
2023/07/09 02:46:56;;;;;;;7.88;3.20;;;;;;;;;;5020447;28;20031;-81
2023/07/09 02:49:22;;;;;;;5.38;3.05;;;;;;;;;;5036898;28;20064;-81
2023/07/09 02:51:47;;;;;;;7.45;3.05;;;;;;;;;;5054254;28;20047;-81
2023/07/09 02:54:12;;;;;;;8.32;3.80;;;;;;;;;;5054253;28;20028;-81
2023/07/09 02:56:38;;;;;;;7.13;3.40;;;;;;;;;;5036613;28;20029;-80
2023/07/09 02:59:04;;;;;;;5.35;3.30;;;;;;;;;;5003867;28;20090;-80
2023/07/09 03:01:30;;;;;;;4.43;3.38;;;;;;;;;;5019939;28;20432;-80
2023/07/09 03:03:55;;;;;;;4.95;3.10;;;;;;;;;;5053679;28;20033;-79
2023/07/09 03:06:21;;;;;;;7.90;3.30;;;;;;;;;;5054181;28;20033;-79
2023/07/09 03:08:47;;;;;;;4.20;3.20;;;;;;;;;;5053960;28;20036;-79
2023/07/09 03:11:12;;;;;;;5.57;3.25;;;;;;;;;;5020395;28;20085;-80
2023/07/09 03:13:38;;;;;;;4.32;3.30;;;;;;;;;;5036236;28;20068;-80
2023/07/09 03:16:04;;;;;;;5.90;3.17;;;;;;;;;;5019992;28;20029;-80
2023/07/09 03:18:29;;;;;;;7.43;3.30;;;;;;;;;;5019581;28;20040;-80
2023/07/09 03:20:55;;;;;;;3.88;3.45;;;;;;;;;;5036282;28;20127;-80
2023/07/09 03:23:21;;;;;;;10.52;3.42;;;;;;;;;;5054069;28;20037;-80
2023/07/09 03:25:46;;;;;;;5.15;3.20;;;;;;;;;;5053691;28;20025;-80
2023/07/09 03:28:12;;;;;;;9.63;3.47;;;;;;;;;;5055933;28;20391;-79
2023/07/09 03:30:44;;;;;;;5.65;3.00;;;;;;;;;;5040412;28;20179;-80
2023/07/09 03:33:10;;;;;;;3.42;3.10;;;;;;;;;;5023319;28;20039;-80
2023/07/09 03:35:36;;;;;;;3.55;3.03;;;;;;;;;;5057865;28;20115;-80
2023/07/09 03:38:01;;;;;;;6.97;3.10;;;;;;;;;;5040058;28;20021;-80
2023/07/09 03:40:27;;;;;;;4.38;2.92;;;;;;;;;;5040150;28;20514;-80
2023/07/09 03:42:52;;;;;;;6.45;3.15;;;;;;;;;;5057526;28;20402;-80
2023/07/09 03:45:18;;;;;;;3.90;3.40;;;;;;;;;;5057497;28;20460;-80
2023/07/09 03:47:43;;;;;;;4.93;3.40;;;;;;;;;;5039361;28;20036;-79
2023/07/09 03:50:09;;;;;;;10.45;3.40;;;;;;;;;;5057557;28;20082;-80
2023/07/09 03:52:35;;;;;;;9.15;3.42;;;;;;;;;;5057717;28;20025;-81
2023/07/09 03:55:03;;;;;;;5.10;3.40;;;;;;;;;;5039545;28;20031;-80
2023/07/09 03:57:28;;;;;;;7.20;3.25;;;;;;;;;;5023638;28;20064;-81
2023/07/09 03:59:54;;;;;;;3.47;3.17;;;;;;;;;;5023564;28;20056;-81
2023/07/09 04:02:19;;;;;;;7.40;3.20;;;;;;;;;;5039556;28;20029;-80
2023/07/09 04:04:45;;;;;;;6.82;3.50;;;;;;;;;;5023271;28;20408;-80
2023/07/09 04:07:10;;;;;;;11.85;3.42;;;;;;;;;;5023056;28;20029;-80
2023/07/09 04:09:36;;;;;;;5.35;3.63;;;;;;;;;;5039403;28;20028;-79
2023/07/09 04:12:02;;;;;;;6.22;3.60;;;;;;;;;;5023068;28;20122;-80
2023/07/09 04:14:28;;;;;;;7.28;3.78;;;;;;;;;;5039309;28;20029;-80
2023/07/09 04:16:53;;;;;;;7.32;4.00;;;;;;;;;;5039039;28;20128;-80
2023/07/09 04:19:19;;;;;;;5.68;3.83;;;;;;;;;;5006123;28;20025;-81
2023/07/09 04:21:44;;;;;;;14.05;4.20;;;;;;;;;;5039238;28;20024;-79
2023/07/09 04:24:10;;;;;;;8.93;3.88;;;;;;;;;;5055892;28;20033;-80
2023/07/09 04:26:35;;;;;;;10.35;3.67;;;;;;;;;;5056768;28;20139;-79
2023/07/09 04:29:01;;;;;;;7.50;3.70;;;;;;;;;;5039338;28;20124;-80
2023/07/09 04:31:26;;;;;;;9.13;3.80;;;;;;;;;;5038658;28;20029;-80
2023/07/09 04:33:52;;;;;;;7.75;3.58;;;;;;;;;;5039015;28;20029;-80
2023/07/09 04:36:18;;;;;;;7.90;3.63;;;;;;;;;;5056565;28;20556;-79
2023/07/09 04:38:43;;;;;;;5.68;3.40;;;;;;;;;;5021657;28;20071;-80
2023/07/09 04:41:09;;;;;;;9.55;3.33;;;;;;;;;;5021968;28;20032;-79
2023/07/09 04:43:34;;;;;;;7.57;3.40;;;;;;;;;;5038594;28;20057;-80
2023/07/09 04:46:00;;;;;;;5.63;3.08;;;;;;;;;;5022033;28;20037;-79
2023/07/09 04:48:25;;;;;;;4.53;3.03;;;;;;;;;;5038675;28;20044;-80
2023/07/09 04:50:51;;;;;;;4.20;3.05;;;;;;;;;;5038698;28;20029;-80
2023/07/09 04:53:16;;;;;;;8.60;3.45;;;;;;;;;;5056769;28;20440;-80
2023/07/09 04:55:42;;;;;;;4.38;3.03;;;;;;;;;;5038744;28;20436;-80
2023/07/09 04:58:07;;;;;;;4.97;3.10;;;;;;;;;;5056111;28;20068;-79
2023/07/09 05:00:32;;;;;;;5.57;3.25;;;;;;;;;;5038162;28;20044;-80
2023/07/09 05:02:58;;;;;;;3.85;2.83;;;;;;;;;;5055340;28;20045;-80
2023/07/09 05:05:23;;;;;;;4.97;3.10;;;;;;;;;;5056407;28;20021;-80
2023/07/09 05:07:49;;;;;;;16.33;3.40;;;;;;;;;;5056239;28;20032;-80
2023/07/09 05:10:14;;;;;;;14.65;3.42;;;;;;;;;;5022243;28;20041;-79
2023/07/09 05:12:50;;;;;;;8.60;2.92;;;;;;;;;;5055774;28;20033;-79
2023/07/09 05:15:16;;;;;;;5.07;2.92;;;;;;;;;;5055882;28;20029;-80
2023/07/09 05:17:41;;;;;;;7.97;3.25;;;;;;;;;;5038435;28;20110;-79
2023/07/09 05:20:07;;;;;;;5.10;3.13;;;;;;;;;;5055753;28;20115;-80
2023/07/09 05:22:32;;;;;;;4.47;3.15;;;;;;;;;;5037647;28;20033;-80
2023/07/09 05:24:58;;;;;;;6.45;3.05;;;;;;;;;;5055887;28;20052;-79
2023/07/09 05:27:23;;;;;;;7.65;3.15;;;;;;;;;;5055909;28;20048;-80
2023/07/09 05:29:48;;;;;;;5.32;2.65;;;;;;;;;;5055536;28;20439;-80
2023/07/09 05:32:14;;;;;;;3.92;3.13;;;;;;;;;;5055448;28;20097;-82
2023/07/09 05:34:40;;;;;;;5.35;3.10;;;;;;;;;;5055738;28;20112;-81
2023/07/09 05:37:05;;;;;;;5.72;3.05;;;;;;;;;;5037534;28;20356;-81
2023/07/09 05:39:30;;;;;;;5.05;2.92;;;;;;;;;;5055863;28;20036;-81
2023/07/09 05:41:56;;;;;;;5.35;2.63;;;;;;;;;;5055286;28;20115;-81
2023/07/09 05:44:21;;;;;;;3.90;2.53;;;;;;;;;;5054842;28;20456;-82
2023/07/09 05:46:47;;;;;;;4.40;2.60;;;;;;;;;;5055289;28;20037;-80
2023/07/09 05:49:12;;;;;;;7.20;2.83;;;;;;;;;;5055400;28;20032;-81
2023/07/09 05:51:38;;;;;;;8.93;2.90;;;;;;;;;;5037501;28;20027;-81
2023/07/09 05:54:03;;;;;;;6.07;2.75;;;;;;;;;;5055294;28;20037;-81
2023/07/09 05:56:29;;;;;;;6.55;2.75;;;;;;;;;;5037153;28;20028;-82
2023/07/09 05:58:55;;;;;;;6.68;2.78;;;;;;;;;;5020458;28;20108;-81
2023/07/09 06:01:20;;;;;;;6.43;2.60;;;;;;;;;;5037069;28;20094;-81
2023/07/09 06:03:46;;;;;;;4.50;2.60;;;;;;;;;;5036903;28;20452;-79
2023/07/09 06:06:12;;;;;;;7.05;2.80;;;;;;;;;;5020767;28;20444;-80
2023/07/09 06:08:38;;;;;;;3.83;2.60;;;;;;;;;;5054852;28;20059;-81
2023/07/09 06:11:03;;;;;;;4.45;2.50;;;;;;;;;;5037402;28;20037;-81
2023/07/09 06:13:30;;;;;;;6.40;2.50;;;;;;;;;;5020531;28;20407;-81
2023/07/09 06:15:56;;;;;;;3.70;2.70;;;;;;;;;;5037331;28;20033;-82
2023/07/09 06:18:22;;;;;;;8.73;2.60;;;;;;;;;;5037296;28;20512;-81
2023/07/09 06:20:51;;;;;;;3.05;2.50;;;;;;;;;;5036885;28;20036;-81
2023/07/09 06:23:17;;;;;;;11.25;2.80;;;;;;;;;;5036724;28;20128;-81
2023/07/09 06:25:43;;;;;;;6.15;2.63;;;;;;;;;;5036767;28;20115;-80
2023/07/09 06:28:09;;;;;;;6.18;2.60;;;;;;;;;;5036655;28;20032;-81
2023/07/09 06:30:36;;;;;;;3.38;2.22;;;;;;;;;;5036780;28;20025;-82
2023/07/09 06:33:01;;;;;;;4.22;2.30;;;;;;;;;;5036697;28;20021;-82
2023/07/09 06:35:26;;;;;;;6.18;2.50;;;;;;;;;;5054833;28;20025;-82
2023/07/09 06:37:52;;;;;;;4.57;2.28;;;;;;;;;;5036413;28;20029;-81
2023/07/09 06:40:18;;;;;;;6.68;2.60;;;;;;;;;;5036720;28;20025;-81
2023/07/09 06:42:43;;;;;;;3.15;2.40;;;;;;;;;;5036152;28;20024;-81
2023/07/09 06:45:09;;;;;;;4.80;2.28;;;;;;;;;;5036199;28;20037;-79
2023/07/09 06:47:35;;;;;;;4.10;2.45;;;;;;;;;;5054007;28;20051;-81
2023/07/09 06:50:00;;;;;;;5.82;2.60;;;;;;;;;;5036433;28;20029;-81
2023/07/09 06:52:26;;;;;;;7.68;2.60;;;;;;;;;;5054473;28;20090;-82
2023/07/09 06:54:51;;;;;;;6.10;2.30;;;;;;;;;;5053992;28;20033;-82
2023/07/09 06:57:17;;;;;;;4.35;2.17;;;;;;;;;;5019789;28;20035;-82
2023/07/09 06:59:42;;;;;;;3.72;2.28;;;;;;;;;;5054020;28;20029;-81
2023/07/09 07:02:08;;;;;;;3.05;2.28;;;;;;;;;;5053609;28;20375;-81
2023/07/09 07:04:33;;;;;;;4.30;2.40;;;;;;;;;;5036240;28;20505;-80
2023/07/09 07:06:59;;;;;;;5.70;2.25;;;;;;;;;;5053960;28;20443;-81
2023/07/09 07:09:24;;;;;;;4.10;2.30;;;;;;;;;;5036456;28;20036;-80
2023/07/09 07:11:50;;;;;;;2.88;2.40;;;;;;;;;;5003692;28;20024;-81
2023/07/09 07:14:15;;;;;;;2.78;2.38;;;;;;;;;;5019654;28;20028;-82
2023/07/09 07:16:41;;;;;;;2.60;2.40;;;;;;;;;;5035976;28;20436;-79
2023/07/09 07:19:06;;;;;;;4.35;2.33;;;;;;;;;;5053699;28;20029;-79
2023/07/09 07:21:32;;;;;;;3.63;2.45;;;;;;;;;;5053653;28;20061;-81
2023/07/09 07:23:57;;;;;;;4.03;2.47;;;;;;;;;;5053812;28;20393;-80
2023/07/09 07:26:23;;;;;;;2.80;2.33;;;;;;;;;;5019434;28;20388;-81
2023/07/09 07:28:50;;;;;;;4.78;2.30;;;;;;;;;;5035886;28;20064;-79
2023/07/09 07:31:15;;;;;;;3.38;2.30;;;;;;;;;;5036197;28;20028;-79
2023/07/09 07:33:41;;;;;;;2.83;2.30;;;;;;;;;;5019518;28;20035;-80
2023/07/09 07:36:07;;;;;;;5.15;2.58;;;;;;;;;;5035968;28;20029;-80
2023/07/09 07:38:32;;;;;;;4.22;2.45;;;;;;;;;;5053929;28;20020;-80
2023/07/09 07:40:58;;;;;;;3.40;2.95;;;;;;;;;;5035673;28;20033;-79
2023/07/09 07:43:23;;;;;;;3.53;2.90;;;;;;;;;;5019358;28;20049;-80
2023/07/09 07:45:49;;;;;;;2.50;2.22;;;;;;;;;;5035642;28;20357;-80
2023/07/09 07:48:14;;;;;;;4.18;2.50;;;;;;;;;;5035949;28;20408;-80
2023/07/09 07:50:40;;;;;;;4.95;2.45;;;;;;;;;;5019314;28;20033;-80
2023/07/09 07:53:07;;;;;;;3.22;2.40;;;;;;;;;;5035892;28;20044;-81
2023/07/09 07:55:33;;;;;;;3.47;2.38;;;;;;;;;;5052042;28;20025;-82
2023/07/09 07:58:02;;;;;;;6.90;2.80;;;;;;;;;;5035856;28;20085;-80
2023/07/09 08:00:28;;;;;;;7.68;2.58;;;;;;;;;;5036574;28;20056;-80
2023/07/09 08:02:53;;;;;;;4.90;2.33;;;;;;;;;;5053498;28;20049;-82
2023/07/09 08:05:19;;;;;;;5.07;2.72;;;;;;;;;;5053461;28;20029;-81
2023/07/09 08:07:44;;;;;;;2.97;2.28;;;;;;;;;;5036212;28;20472;-79
2023/07/09 08:10:11;;;;;;;7.93;2.83;;;;;;;;;;5025336;28;20436;-81
2023/07/09 08:12:37;;;;;;;5.75;2.28;;;;;;;;;;5050088;28;20032;-81
2023/07/09 08:15:03;;;;;;;6.70;2.60;;;;;;;;;;5054885;28;20040;-81
2023/07/09 08:17:28;;;;;;;8.13;2.90;;;;;;;;;;5069653;28;20060;-81
2023/07/09 08:19:54;;;;;;;3.65;2.65;;;;;;;;;;5073557;28;20009;-81
2023/07/09 08:22:23;;;;;;;5.65;2.58;;;;;;;;;;5048165;28;20025;-81
2023/07/09 08:24:51;;;;;;;3.72;2.40;;;;;;;;;;5023120;28;20029;-81
2023/07/09 08:27:17;;;;;;;5.60;2.60;;;;;;;;;;5056951;28;20112;-81
2023/07/09 08:29:42;;;;;;;5.40;2.78;;;;;;;;;;5038902;28;20051;-82
2023/07/09 08:32:09;;;;;;;6.22;2.42;;;;;;;;;;5056327;28;20392;-82
2023/07/09 08:34:34;;;;;;;5.18;2.75;;;;;;;;;;5039324;28;20075;-82
2023/07/09 08:37:00;;;;;;;2.67;2.47;;;;;;;;;;5056557;28;20451;-81
2023/07/09 08:39:25;;;;;;;5.10;2.78;;;;;;;;;;5038619;28;20575;-82
2023/07/09 08:41:54;;;;;;;4.53;2.70;;;;;;;;;;5022673;28;20408;-82
2023/07/09 08:44:23;;;;;;;5.72;2.80;;;;;;;;;;5035130;28;20033;-82
2023/07/09 08:47:15;;;;;;;3.00;2.70;;;;;;;;;;5036727;28;20033;-82
2023/07/09 08:49:43;;;;;;;9.25;2.85;;;;;;;;;;5020477;28;20030;-81
2023/07/09 08:52:39;;;;;;;6.45;2.80;;;;;;;;;;5036415;28;20330;-82
2023/07/09 08:55:11;;;;;;;3.03;2.33;;;;;;;;;;5035785;28;20037;-82
2023/07/09 08:57:48;;;;;;;2.72;2.53;;;;;;;;;;5018801;28;20025;-82
2023/07/09 09:00:20;;;;;;;4.22;2.78;;;;;;;;;;5002677;28;20025;-82
2023/07/09 09:03:13;;;;;;;7.00;2.90;;;;;;;;;;5018862;28;20432;-82
2023/07/09 09:05:41;;;;;;;3.17;2.80;;;;;;;;;;5034535;28;20086;-82
2023/07/09 09:08:33;;;;;;;3.05;2.60;;;;;;;;;;5018446;28;20025;-82
2023/07/09 09:11:43;;;;;;;6.25;2.72;;;;;;;;;;5007879;28;20400;-80
2023/07/09 09:14:26;;;;;;;5.35;2.60;;;;;;;;;;5008301;28;20428;-81
2023/07/09 09:16:51;;;;;;;6.05;2.60;;;;;;;;;;5018563;28;20587;-81
2023/07/09 09:19:29;;;;;;;5.70;2.90;;;;;;;;;;5034931;28;20109;-82
2023/07/09 09:22:03;;;;;;;3.75;2.63;;;;;;;;;;5018943;28;20033;-82
2023/07/09 09:24:37;;;;;;;3.22;2.90;;;;;;;;;;5002511;28;20135;-82
2023/07/09 09:27:02;;;;;;;3.88;3.00;;;;;;;;;;5018128;28;20041;-80
2023/07/09 09:29:28;;;;;;;4.00;2.72;;;;;;;;;;5036093;28;20487;-82
2023/07/09 09:31:56;;;;;;;5.10;2.70;;;;;;;;;;5035504;28;20414;-80
2023/07/09 09:34:27;;;;;;;3.88;3.00;;;;;;;;;;5017969;28;20099;-80
2023/07/09 09:36:52;;;;;;;4.90;2.80;;;;;;;;;;5018452;28;20029;-81
2023/07/09 09:39:18;;;;;;;6.45;3.15;;;;;;;;;;5035379;28;20064;-82
2023/07/09 09:41:44;;;;;;;3.75;3.00;;;;;;;;;;5035467;28;20033;-82
2023/07/09 09:44:18;;;;;;;2.90;2.70;;;;;;;;;;5017421;28;20053;-81
2023/07/09 09:46:43;;;;;;;6.25;2.40;;;;;;;;;;5018153;28;20065;-81
2023/07/09 09:49:08;;;;;;;2.60;2.40;;;;;;;;;;5034120;28;20057;-82
2023/07/09 09:51:34;;;;;;;3.55;2.58;;;;;;;;;;5017242;28;20030;-81
2023/07/09 09:54:02;;;;;;;4.78;2.63;;;;;;;;;;5017575;28;20061;-81
2023/07/09 09:56:29;;;;;;;3.80;2.78;;;;;;;;;;5017885;28;20029;-81
2023/07/09 09:58:55;;;;;;;5.78;2.90;;;;;;;;;;5034185;28;20041;-82
2023/07/09 10:01:34;;;;;;;2.95;2.60;;;;;;;;;;5017568;28;20040;-80
2023/07/09 10:04:00;;;;;;;3.03;2.53;;;;;;;;;;5034985;28;20376;-82
2023/07/09 10:06:42;;;;;;;3.67;2.55;;;;;;;;;;5033548;28;20463;-82
2023/07/09 10:09:36;;;;;;;5.38;2.90;;;;;;;;;;5033676;28;20044;-81
2023/07/09 10:12:09;;;;;;;3.47;2.55;;;;;;;;;;5033327;28;20468;-81
2023/07/09 10:14:58;;;;;;;3.75;2.60;;;;;;;;;;5017794;28;20376;-81
2023/07/09 10:17:29;;;;;;;5.13;3.72;;;;;;;;;;5024368;28;20034;-80
2023/07/09 10:20:04;;;;;;;12.75;5.78;;;;;;;;;;5033848;28;20080;-81
2023/07/09 10:22:40;;;;;;;5.85;4.45;;;;;;;;;;5034754;28;20036;-81
2023/07/09 10:25:28;;;;;;;6.68;3.10;;;;;;;;;;5034121;28;20445;-80
2023/07/09 10:28:12;;;;;;;10.10;7.85;;;;;;;;;;5034577;28;20063;-81
2023/07/09 10:30:56;;;;;;;11.77;8.95;;;;;;;;;;5034825;28;20029;-82
2023/07/09 10:33:37;;;;;;;6.32;4.15;;;;;;;;;;5017605;28;20037;-82
2023/07/09 10:36:44;;;;;;;5.18;3.80;;;;;;;;;;5017702;28;20030;-81
2023/07/09 10:39:17;;;;;;;3.63;3.15;;;;;;;;;;4973491;28;20035;-82
2023/07/09 10:41:42;;;;;;;6.90;3.30;;;;;;;;;;4957666;28;20029;-82
2023/07/09 10:44:18;;;;;;;5.35;3.20;;;;;;;;;;4988875;28;20045;-81
2023/07/09 10:46:47;;;;;;;5.47;2.88;;;;;;;;;;5017432;28;20030;-81
2023/07/09 10:49:14;;;;;;;7.80;2.80;;;;;;;;;;5033156;28;20345;-81
2023/07/09 10:51:46;;;;;;;3.55;2.95;;;;;;;;;;5017575;28;20388;-80
2023/07/09 10:54:18;;;;;;;4.07;3.03;;;;;;;;;;5017644;28;20033;-81
2023/07/09 10:56:43;;;;;;;5.65;3.30;;;;;;;;;;5033106;28;20058;-81
2023/07/09 10:59:24;;;;;;;3.30;2.78;;;;;;;;;;5033460;28;20025;-81
2023/07/09 11:01:52;;;;;;;3.38;2.45;;;;;;;;;;5033390;28;20029;-81
2023/07/09 11:04:37;;;;;;;4.53;2.88;;;;;;;;;;5049534;28;20029;-82
2023/07/09 11:07:09;;;;;;;3.42;2.95;;;;;;;;;;5017002;28;20029;-81
2023/07/09 11:09:40;;;;;;;5.53;3.03;;;;;;;;;;5000890;28;20040;-81
2023/07/09 11:12:12;;;;;;;3.42;2.92;;;;;;;;;;5000459;28;20044;-80
2023/07/09 11:14:38;;;;;;;4.22;2.90;;;;;;;;;;5034178;28;20038;-80
2023/07/09 11:17:04;;;;;;;3.85;2.85;;;;;;;;;;5027274;28;20037;-80
2023/07/09 11:19:30;;;;;;;5.70;2.97;;;;;;;;;;5056641;28;20032;-80
2023/07/09 11:22:03;;;;;;;4.50;3.13;;;;;;;;;;5042698;28;20026;-79
2023/07/09 11:24:44;;;;;;;4.15;2.95;;;;;;;;;;5038149;28;20093;-79
2023/07/09 11:27:22;;;;;;;7.90;3.17;;;;;;;;;;5033954;28;20353;-81
2023/07/09 11:29:55;;;;;;;5.13;2.75;;;;;;;;;;5033016;28;20029;-80
2023/07/09 11:32:24;;;;;;;4.72;2.78;;;;;;;;;;5032477;28;20029;-82
2023/07/09 11:34:49;;;;;;;4.32;2.67;;;;;;;;;;5032954;28;20029;-80
2023/07/09 11:37:15;;;;;;;6.88;2.70;;;;;;;;;;5032623;28;20022;-81
2023/07/09 11:39:41;;;;;;;3.28;2.75;;;;;;;;;;5033847;28;20030;-80
2023/07/09 11:42:31;;;;;;;4.10;2.60;;;;;;;;;;5033700;28;20029;-82
2023/07/09 11:45:06;;;;;;;7.47;3.10;;;;;;;;;;5016021;28;20037;-82
2023/07/09 11:47:48;;;;;;;6.80;3.00;;;;;;;;;;5017359;28;20044;-81
2023/07/09 11:50:29;;;;;;;4.38;2.60;;;;;;;;;;5021199;28;20035;-81
2023/07/09 11:53:13;;;;;;;3.08;2.42;;;;;;;;;;5004823;28;20115;-81
2023/07/09 11:55:43;;;;;;;8.40;2.22;;;;;;;;;;5020899;28;20034;-81
2023/07/09 11:58:16;;;;;;;4.47;2.50;;;;;;;;;;5037474;28;20060;-81
2023/07/09 12:00:50;;;;;;;3.58;2.20;;;;;;;;;;5020070;28;20441;-81
2023/07/09 12:03:23;;;;;;;2.92;2.33;;;;;;;;;;5019447;28;20037;-80
2023/07/09 12:05:53;;;;;;;3.35;2.35;;;;;;;;;;5037055;28;20033;-82
2023/07/09 12:08:23;;;;;;;3.47;2.50;;;;;;;;;;5052414;28;20027;-81
2023/07/09 12:10:48;;;;;;;6.68;2.53;;;;;;;;;;5019677;28;20473;-82
2023/07/09 12:13:14;;;;;;;3.53;2.58;;;;;;;;;;5035762;28;20037;-81
2023/07/09 12:15:39;;;;;;;7.60;2.58;;;;;;;;;;5019024;28;20049;-80
2023/07/09 12:18:13;;;;;;;5.00;2.80;;;;;;;;;;5036953;28;20025;-80
2023/07/09 12:20:38;;;;;;;2.80;2.50;;;;;;;;;;5036625;28;20096;-81
2023/07/09 12:23:25;;;;;;;6.72;2.58;;;;;;;;;;5019448;28;20119;-80
2023/07/09 12:25:51;;;;;;;4.35;2.55;;;;;;;;;;5035527;28;20033;-80
2023/07/09 12:28:16;;;;;;;5.95;2.70;;;;;;;;;;5036030;28;20033;-80
2023/07/09 12:30:48;;;;;;;4.15;2.55;;;;;;;;;;5036751;28;20108;-79
2023/07/09 12:33:24;;;;;;;3.90;2.80;;;;;;;;;;5035374;28;20038;-80
2023/07/09 12:35:57;;;;;;;5.13;2.60;;;;;;;;;;5052142;28;20033;-80
2023/07/09 12:38:23;;;;;;;7.07;2.53;;;;;;;;;;5019506;28;20116;-80
2023/07/09 12:40:49;;;;;;;4.25;2.53;;;;;;;;;;5035692;28;20036;-80
2023/07/09 12:43:25;;;;;;;3.00;2.60;;;;;;;;;;5020405;28;20429;-80
2023/07/09 12:45:51;;;;;;;4.85;2.63;;;;;;;;;;5023112;28;20035;-80
2023/07/09 12:48:25;;;;;;;5.22;2.88;;;;;;;;;;5038681;28;20368;-80
2023/07/09 12:50:50;;;;;;;3.72;2.55;;;;;;;;;;5038690;28;20032;-80
2023/07/09 12:53:17;;;;;;;4.70;2.83;;;;;;;;;;5038742;28;20063;-80
2023/07/09 12:55:45;;;;;;;2.83;2.38;;;;;;;;;;5038796;28;20441;-80
2023/07/09 12:58:25;;;;;;;2.85;2.22;;;;;;;;;;5021708;28;20035;-79
2023/07/09 13:00:52;;;;;;;2.70;2.22;;;;;;;;;;5038187;28;20376;-80
2023/07/09 13:03:24;;;;;;;2.35;2.03;;;;;;;;;;5038061;28;20368;-80
2023/07/09 13:06:03;;;;;;;6.13;2.40;;;;;;;;;;5056193;28;20037;-80
2023/07/09 13:08:29;;;;;;;;;;;;;;;;;;5022674;28;20031;-80
2023/07/09 13:10:56;;;;;;;3.65;2.55;;;;;;;;;;5037960;28;19912;-81
2023/07/09 13:13:22;;;;;;;4.50;2.70;;;;;;;;;;5021353;28;20032;-80
2023/07/09 13:15:56;;;;;;;6.57;2.90;;;;;;;;;;5055096;28;20395;-81
2023/07/09 13:18:22;;;;;;;4.45;2.67;;;;;;;;;;5039025;28;20071;-79
2023/07/09 13:20:48;;;;;;;4.43;2.65;;;;;;;;;;5021670;28;20028;-81
2023/07/09 13:23:26;;;;;;;4.88;2.90;;;;;;;;;;5055815;28;20029;-80
2023/07/09 13:25:53;;;;;;;4.97;2.90;;;;;;;;;;5022557;28;20160;-81
2023/07/09 13:28:22;;;;;;;4.88;2.65;;;;;;;;;;5037997;28;20040;-80
2023/07/09 13:30:50;;;;;;;9.38;2.90;;;;;;;;;;5037708;28;20036;-80
2023/07/09 13:33:17;;;;;;;2.75;2.55;;;;;;;;;;5037605;28;20452;-79
2023/07/09 13:35:43;;;;;;;3.63;2.63;;;;;;;;;;5038276;28;20029;-79
2023/07/09 13:38:16;;;;;;;2.65;2.45;;;;;;;;;;5037444;28;20025;-79
2023/07/09 13:40:44;;;;;;;4.68;2.30;;;;;;;;;;5021192;28;20029;-79
2023/07/09 13:43:14;;;;;;;2.80;2.30;;;;;;;;;;5020971;28;20029;-81
2023/07/09 13:45:39;;;;;;;9.20;2.67;;;;;;;;;;5054309;28;20443;-80
2023/07/09 13:48:26;;;;;;;2.50;2.30;;;;;;;;;;5037535;28;20056;-80
2023/07/09 13:50:52;;;;;;;3.00;2.38;;;;;;;;;;5037539;28;20025;-81
2023/07/09 13:53:19;;;;;;;2.60;2.30;;;;;;;;;;5037490;28;20032;-81
2023/07/09 13:55:45;;;;;;;2.83;2.20;;;;;;;;;;5037484;28;20082;-81
2023/07/09 13:58:11;;;;;;;6.05;2.40;;;;;;;;;;5036668;28;20025;-81
2023/07/09 14:00:37;;;;;;;2.50;2.30;;;;;;;;;;5037462;28;20119;-79
2023/07/09 14:03:03;;;;;;;3.05;1.90;;;;;;;;;;5055163;28;20029;-81
2023/07/09 14:05:28;;;;;;;2.53;2.10;;;;;;;;;;5020515;28;20048;-80
2023/07/09 14:07:54;;;;;;;3.08;1.98;;;;;;;;;;5054699;28;20063;-80
2023/07/09 14:10:20;;;;;;;10.82;2.10;;;;;;;;;;5036892;28;20028;-81
2023/07/09 14:12:46;;;;;;;2.40;1.92;;;;;;;;;;5035724;28;20502;-82
2023/07/09 14:15:15;;;;;;;4.05;2.45;;;;;;;;;;5053559;28;20037;-81
2023/07/09 14:17:40;;;;;;;4.47;2.70;;;;;;;;;;5036947;28;20021;-81
2023/07/09 14:20:08;;;;;;;2.97;2.58;;;;;;;;;;5054834;28;20328;-80
2023/07/09 14:22:34;;;;;;;2.88;2.60;;;;;;;;;;5036972;28;20033;-80
2023/07/09 14:25:00;;;;;;;4.03;2.80;;;;;;;;;;5036757;28;20115;-80
2023/07/09 14:27:26;;;;;;;8.00;2.50;;;;;;;;;;5054486;28;20068;-80
2023/07/09 14:29:51;;;;;;;4.55;3.05;;;;;;;;;;5020454;28;20033;-79
2023/07/09 14:32:37;;;;;;;5.05;3.10;;;;;;;;;;5054585;28;20029;-80
2023/07/09 14:35:10;;;;;;;7.22;2.97;;;;;;;;;;5053264;28;20028;-81
2023/07/09 14:37:36;;;;;;;3.63;3.22;;;;;;;;;;5053737;28;20029;-80
2023/07/09 14:40:02;;;;;;;7.78;3.17;;;;;;;;;;5003657;28;20513;-80
2023/07/09 14:42:27;;;;;;;6.63;3.65;;;;;;;;;;5019916;28;20128;-80
2023/07/09 14:44:52;;;;;;;5.25;3.40;;;;;;;;;;5020000;28;20048;-80
2023/07/09 14:47:19;;;;;;;4.13;3.15;;;;;;;;;;5019950;28;20349;-78
2023/07/09 14:49:45;;;;;;;3.65;2.97;;;;;;;;;;5054010;28;20059;-80
2023/07/09 14:52:12;;;;;;;3.85;2.85;;;;;;;;;;5019844;28;20033;-80